createdAt,value
2022-07-29T00:00:16.649Z,21.60
2022-07-29T00:02:43.986Z,21.60
2022-07-29T00:05:14.733Z,21.60
2022-07-29T00:07:42.549Z,21.60
2022-07-29T00:10:10.173Z,21.60
2022-07-29T00:12:37.791Z,21.60
2022-07-29T00:15:05.783Z,21.60
2022-07-29T00:17:35.162Z,21.60
2022-07-29T00:20:02.491Z,21.60
2022-07-29T00:22:29.788Z,21.60
2022-07-29T00:24:57.131Z,21.70
2022-07-29T00:27:24.584Z,21.70
2022-07-29T00:29:52.009Z,21.70
2022-07-29T00:32:19.351Z,21.70
2022-07-29T00:35:04.890Z,21.50
2022-07-29T00:37:32.219Z,21.40
2022-07-29T00:39:59.510Z,21.20
2022-07-29T00:42:26.840Z,21.10
2022-07-29T00:44:54.139Z,21.10
2022-07-29T00:47:21.440Z,21.00
2022-07-29T00:49:48.819Z,21.10
2022-07-29T00:52:17.222Z,21.20
2022-07-29T00:54:45.144Z,21.10
2022-07-29T00:57:13.399Z,21.00
2022-07-29T00:59:40.920Z,21.00
2022-07-29T01:02:08.299Z,21.00
2022-07-29T01:04:35.729Z,21.10
2022-07-29T01:07:04.069Z,21.20
2022-07-29T01:09:42.732Z,21.20
2022-07-29T01:12:25.559Z,21.20
2022-07-29T01:14:54.603Z,21.20
2022-07-29T01:17:30.144Z,21.10
2022-07-29T01:20:00.390Z,21.10
2022-07-29T01:22:36.278Z,21.10
2022-07-29T01:25:31.084Z,20.90
2022-07-29T01:28:35.808Z,20.90
2022-07-29T01:31:05.894Z,20.90
2022-07-29T01:33:51.730Z,20.90
2022-07-29T01:36:28.611Z,21.00
2022-07-29T01:39:09.869Z,21.00
2022-07-29T01:41:41.340Z,21.00
2022-07-29T01:44:58.060Z,21.00
2022-07-29T01:47:32.711Z,21.10
2022-07-29T01:50:07.789Z,21.20
2022-07-29T01:52:45.999Z,21.10
2022-07-29T01:55:18.789Z,21.20
2022-07-29T01:57:49.039Z,21.10
2022-07-29T02:00:17.839Z,21.20
2022-07-29T02:02:48.062Z,21.20
2022-07-29T02:05:18.915Z,21.20
2022-07-29T02:07:49.369Z,21.10
2022-07-29T02:10:18.119Z,21.10
2022-07-29T02:12:50.678Z,21.10
2022-07-29T02:15:19.798Z,21.10
2022-07-29T02:17:52.229Z,21.10
2022-07-29T02:20:20.528Z,21.10
2022-07-29T02:22:50.115Z,21.20
2022-07-29T02:25:18.679Z,21.20
2022-07-29T02:27:46.839Z,21.10
2022-07-29T02:30:14.670Z,21.10
2022-07-29T02:32:44.672Z,21.10
2022-07-29T02:35:16.538Z,21.00
2022-07-29T02:37:46.089Z,20.90
2022-07-29T02:40:16.428Z,20.80
2022-07-29T02:42:45.918Z,20.80
2022-07-29T02:45:13.259Z,20.80
2022-07-29T02:47:47.658Z,20.90
2022-07-29T02:50:27.308Z,20.90
2022-07-29T02:53:15.648Z,20.90
2022-07-29T02:55:47.578Z,20.80
2022-07-29T02:58:29.669Z,20.70
2022-07-29T03:01:04.428Z,20.60
2022-07-29T03:03:39.261Z,20.60
2022-07-29T03:06:08.578Z,20.60
2022-07-29T03:08:57.759Z,20.60
2022-07-29T03:11:46.182Z,20.70
2022-07-29T03:14:14.423Z,20.60
2022-07-29T03:16:42.776Z,20.60
2022-07-29T03:19:10.124Z,20.50
2022-07-29T03:21:37.479Z,20.40
2022-07-29T03:24:10.056Z,20.20
2022-07-29T03:26:38.159Z,20.10
2022-07-29T03:29:05.468Z,20.10
2022-07-29T03:31:33.515Z,20.20
2022-07-29T03:34:01.137Z,20.30
2022-07-29T03:36:28.478Z,20.30
2022-07-29T03:38:56.948Z,20.40
2022-07-29T03:41:25.808Z,20.60
2022-07-29T03:43:54.379Z,20.60
2022-07-29T03:46:25.018Z,20.70
2022-07-29T03:48:57.662Z,20.60
2022-07-29T03:51:33.255Z,20.70
2022-07-29T03:54:09.522Z,20.70
2022-07-29T03:56:41.307Z,20.80
2022-07-29T03:59:10.746Z,20.80
2022-07-29T04:01:39.639Z,20.70
2022-07-29T04:04:07.049Z,20.70
2022-07-29T04:06:45.211Z,20.80
2022-07-29T04:09:13.471Z,20.80
2022-07-29T04:12:02.383Z,20.80
2022-07-29T04:14:29.403Z,20.80
2022-07-29T04:16:56.609Z,20.70
2022-07-29T04:19:23.899Z,20.70
2022-07-29T04:21:51.200Z,20.60
2022-07-29T04:24:19.055Z,20.50
2022-07-29T04:26:50.042Z,20.50
2022-07-29T04:29:17.470Z,20.60
2022-07-29T04:31:45.504Z,20.60
2022-07-29T04:34:14.057Z,20.60
2022-07-29T04:36:41.570Z,20.50
2022-07-29T04:39:08.877Z,20.40
2022-07-29T04:41:36.141Z,20.30
2022-07-29T04:44:07.040Z,20.20
2022-07-29T04:46:35.358Z,20.20
2022-07-29T04:49:04.057Z,20.10
2022-07-29T04:51:31.832Z,20.00
2022-07-29T04:53:59.761Z,20.00
2022-07-29T04:56:27.181Z,20.00
2022-07-29T04:58:54.521Z,19.90
2022-07-29T05:01:22.016Z,19.90
2022-07-29T05:03:49.821Z,19.90
2022-07-29T05:06:17.300Z,19.90
2022-07-29T05:08:44.590Z,19.90
2022-07-29T05:11:13.581Z,19.90
2022-07-29T05:13:45.657Z,19.90
2022-07-29T05:16:15.313Z,20.10
2022-07-29T05:18:43.375Z,20.20
2022-07-29T05:21:10.799Z,20.30
2022-07-29T05:23:38.094Z,20.30
2022-07-29T05:26:05.401Z,20.30
2022-07-29T05:28:39.100Z,20.40
2022-07-29T05:31:06.553Z,20.50
2022-07-29T05:33:35.544Z,20.50
2022-07-29T05:36:08.341Z,20.50
2022-07-29T05:38:37.169Z,20.50
2022-07-29T05:41:06.292Z,20.60
2022-07-29T05:43:34.220Z,20.60
2022-07-29T05:48:43.061Z,20.50
2022-07-29T05:51:11.251Z,20.50
2022-07-29T05:53:38.508Z,20.50
2022-07-29T05:56:06.649Z,20.40
2022-07-29T05:58:34.079Z,20.40
2022-07-29T06:01:01.822Z,20.40
2022-07-29T06:03:29.637Z,20.40
2022-07-29T06:05:56.880Z,20.40
2022-07-29T06:08:24.533Z,20.40
2022-07-29T06:10:51.800Z,20.50
2022-07-29T06:13:19.101Z,20.50
2022-07-29T06:15:46.452Z,20.60
2022-07-29T06:18:14.549Z,20.60
2022-07-29T06:20:42.039Z,20.50
2022-07-29T06:23:11.039Z,20.50
2022-07-29T06:25:38.746Z,20.60
2022-07-29T06:28:06.280Z,20.60
2022-07-29T06:30:34.049Z,20.60
2022-07-29T06:33:03.119Z,20.60
2022-07-29T06:35:38.283Z,20.70
2022-07-29T06:38:30.153Z,20.80
2022-07-29T06:41:03.506Z,20.90
2022-07-29T06:43:52.249Z,20.90
2022-07-29T06:46:23.279Z,20.90
2022-07-29T06:48:51.269Z,21.00
2022-07-29T06:51:23.401Z,21.20
2022-07-29T06:54:01.422Z,21.40
2022-07-29T06:56:42.748Z,21.50
2022-07-29T06:59:12.075Z,21.80
2022-07-29T07:01:43.942Z,21.90
2022-07-29T07:04:11.901Z,21.90
2022-07-29T07:06:39.326Z,21.90
2022-07-29T07:09:07.170Z,22.00
2022-07-29T07:11:34.729Z,22.10
2022-07-29T07:14:03.783Z,22.20
2022-07-29T07:16:32.770Z,22.30
2022-07-29T07:19:00.500Z,22.50
2022-07-29T07:21:30.209Z,22.50
2022-07-29T07:23:58.498Z,22.60
2022-07-29T07:26:26.440Z,22.80
2022-07-29T07:28:53.829Z,22.90
2022-07-29T07:31:21.347Z,23.10
2022-07-29T07:33:48.809Z,23.30
2022-07-29T07:36:16.139Z,23.70
2022-07-29T07:38:43.448Z,24.00
2022-07-29T07:41:10.759Z,24.10
2022-07-29T07:43:38.171Z,24.00
2022-07-29T07:46:05.961Z,24.10
2022-07-29T07:48:33.408Z,24.10
2022-07-29T07:51:00.742Z,24.00
2022-07-29T07:53:28.219Z,23.90
2022-07-29T07:56:12.476Z,23.80
2022-07-29T07:58:40.500Z,23.80
2022-07-29T08:01:08.872Z,24.00
2022-07-29T08:03:36.339Z,24.20
2022-07-29T08:06:05.206Z,24.40
2022-07-29T08:08:32.746Z,24.60
2022-07-29T08:11:03.236Z,24.60
2022-07-29T08:13:34.279Z,24.60
2022-07-29T08:16:02.820Z,25.00
2022-07-29T08:18:32.477Z,25.10
2022-07-29T08:21:00.268Z,25.20
2022-07-29T08:23:32.955Z,25.50
2022-07-29T08:26:15.330Z,25.80
2022-07-29T08:28:47.969Z,25.80
2022-07-29T08:31:15.620Z,25.50
2022-07-29T08:33:43.618Z,25.30
2022-07-29T08:36:11.021Z,25.20
2022-07-29T08:38:38.311Z,25.10
2022-07-29T08:41:05.890Z,25.00
2022-07-29T08:43:35.019Z,25.10
2022-07-29T08:46:02.517Z,25.20
2022-07-29T08:48:30.419Z,25.30
2022-07-29T08:50:58.948Z,25.30
2022-07-29T08:53:29.296Z,25.40
2022-07-29T08:55:57.309Z,25.40
2022-07-29T08:58:26.014Z,25.30
2022-07-29T09:00:55.764Z,25.40
2022-07-29T09:03:28.661Z,25.40
2022-07-29T09:05:56.228Z,25.40
2022-07-29T09:08:24.480Z,25.50
2022-07-29T09:10:52.840Z,25.60
2022-07-29T09:13:20.312Z,25.60
2022-07-29T09:15:47.593Z,25.70
2022-07-29T09:18:37.421Z,25.60
2022-07-29T09:21:24.939Z,25.60
2022-07-29T09:24:13.579Z,25.70
2022-07-29T09:26:43.843Z,25.70
2022-07-29T09:29:15.358Z,25.70
2022-07-29T09:31:46.101Z,25.70
2022-07-29T09:34:15.983Z,25.80
2022-07-29T09:36:49.549Z,26.00
2022-07-29T09:39:30.109Z,26.10
2022-07-29T09:41:59.580Z,26.20
2022-07-29T09:44:27.470Z,26.20
2022-07-29T09:47:09.646Z,26.30
2022-07-29T09:49:51.249Z,26.40
2022-07-29T09:52:18.589Z,26.80
2022-07-29T09:54:46.629Z,27.00
2022-07-29T09:57:30.832Z,27.20
2022-07-29T10:00:01.340Z,27.70
2022-07-29T10:02:39.872Z,28.00
2022-07-29T10:05:25.319Z,28.40
2022-07-29T10:07:57.989Z,28.80
2022-07-29T10:10:27.647Z,29.00
2022-07-29T10:12:56.360Z,28.90
2022-07-29T10:15:25.630Z,28.90
2022-07-29T10:17:54.330Z,28.90
2022-07-29T10:20:25.441Z,29.10
2022-07-29T10:22:54.210Z,29.30
2022-07-29T10:25:22.713Z,29.40
2022-07-29T10:27:52.422Z,29.30
2022-07-29T10:30:21.349Z,29.40
2022-07-29T10:33:18.442Z,29.60
2022-07-29T10:35:48.642Z,29.30
2022-07-29T10:38:45.659Z,29.20
2022-07-29T10:44:22.999Z,29.40
2022-07-29T10:46:52.192Z,29.60
2022-07-29T10:49:25.076Z,29.50
2022-07-29T10:51:58.624Z,29.10
2022-07-29T10:54:48.655Z,28.80
2022-07-29T11:00:32.634Z,28.60
2022-07-29T11:03:01.404Z,29.00
2022-07-29T11:05:52.819Z,29.50
2022-07-29T11:08:26.295Z,30.00
2022-07-29T11:11:15.853Z,30.10
2022-07-29T11:13:46.545Z,30.40
2022-07-29T11:19:14.542Z,30.90
2022-07-29T11:21:54.799Z,30.50
2022-07-29T11:24:34.954Z,30.50
2022-07-29T11:27:11.459Z,30.70
2022-07-29T11:30:07.439Z,30.80
2022-07-29T11:32:41.349Z,31.00
2022-07-29T11:35:37.371Z,31.10
2022-07-29T11:38:32.151Z,31.20
2022-07-29T11:41:25.525Z,31.10
2022-07-29T11:43:59.276Z,30.80
2022-07-29T11:46:45.908Z,30.10
2022-07-29T11:49:15.479Z,29.40
2022-07-29T11:51:48.289Z,29.10
2022-07-29T11:54:27.514Z,29.00
2022-07-29T11:56:56.129Z,28.90
2022-07-29T11:59:23.702Z,29.40
2022-07-29T12:02:36.666Z,29.80
2022-07-29T12:04:58.268Z,30.20
2022-07-29T12:07:32.722Z,30.20
2022-07-29T12:10:03.493Z,30.30
2022-07-29T12:12:30.819Z,30.60
2022-07-29T12:14:58.147Z,30.80
2022-07-29T12:17:32.210Z,31.10
2022-07-29T12:20:06.472Z,31.20
2022-07-29T12:22:41.529Z,31.10
2022-07-29T12:25:32.952Z,31.10
2022-07-29T12:28:03.409Z,30.80
2022-07-29T12:30:49.726Z,30.30
2022-07-29T12:33:28.640Z,30.10
2022-07-29T12:36:07.266Z,30.10
2022-07-29T12:38:37.239Z,30.20
2022-07-29T12:41:05.079Z,30.50
2022-07-29T12:43:33.451Z,30.50
2022-07-29T12:46:14.307Z,30.30
2022-07-29T12:48:43.931Z,30.10
2022-07-29T12:51:13.567Z,30.20
2022-07-29T12:53:41.241Z,30.30
2022-07-29T12:59:15.849Z,30.30
2022-07-29T13:01:43.691Z,30.50
2022-07-29T13:04:11.489Z,30.60
2022-07-29T13:06:41.529Z,30.60
2022-07-29T13:09:18.128Z,30.60
2022-07-29T13:11:48.832Z,30.50
2022-07-29T13:14:32.358Z,30.10
2022-07-29T13:17:06.665Z,29.80
2022-07-29T13:19:49.069Z,29.80
2022-07-29T13:22:19.027Z,30.00
2022-07-29T13:24:48.457Z,30.10
2022-07-29T13:27:17.559Z,30.10
2022-07-29T13:29:45.223Z,30.00
2022-07-29T13:32:13.580Z,30.30
2022-07-29T13:34:42.073Z,30.40
2022-07-29T13:37:09.669Z,30.40
2022-07-29T13:39:38.522Z,30.40
2022-07-29T13:42:10.769Z,30.30
2022-07-29T13:44:39.331Z,30.00
2022-07-29T13:47:07.968Z,29.70
2022-07-29T13:49:35.972Z,29.50
2022-07-29T13:52:04.727Z,29.60
2022-07-29T13:54:32.350Z,29.70
2022-07-29T13:56:59.728Z,29.60
2022-07-29T13:59:27.234Z,29.50
2022-07-29T14:01:54.729Z,29.60
2022-07-29T14:04:24.371Z,29.70
2022-07-29T14:06:52.490Z,29.80
2022-07-29T14:09:20.035Z,29.80
2022-07-29T14:11:50.449Z,29.80
2022-07-29T14:14:18.210Z,29.80
2022-07-29T14:16:47.775Z,29.90
2022-07-29T14:19:18.009Z,29.90
2022-07-29T14:21:45.627Z,29.80
2022-07-29T14:24:18.020Z,29.60
2022-07-29T14:26:49.439Z,29.60
2022-07-29T14:29:16.951Z,29.50
2022-07-29T14:31:45.031Z,29.50
2022-07-29T14:34:12.531Z,29.30
2022-07-29T14:36:40.067Z,29.10
2022-07-29T14:39:07.448Z,29.10
2022-07-29T14:41:35.039Z,29.30
2022-07-29T14:44:02.616Z,29.50
2022-07-29T14:46:30.176Z,29.70
2022-07-29T14:48:57.726Z,29.60
2022-07-29T14:51:25.241Z,29.60
2022-07-29T14:54:00.390Z,29.50
2022-07-29T14:56:37.256Z,29.50
2022-07-29T14:59:05.649Z,29.50
2022-07-29T15:01:33.301Z,29.40
2022-07-29T15:04:00.838Z,29.40
2022-07-29T15:06:28.519Z,29.20
2022-07-29T15:08:55.969Z,29.10
2022-07-29T15:11:23.349Z,29.10
2022-07-29T15:13:50.822Z,28.90
2022-07-29T15:16:18.334Z,28.60
2022-07-29T15:18:45.820Z,28.50
2022-07-29T15:21:13.329Z,28.50
2022-07-29T15:23:40.868Z,28.40
2022-07-29T15:26:08.308Z,28.40
2022-07-29T15:28:35.992Z,28.40
2022-07-29T15:31:03.463Z,28.50
2022-07-29T15:33:31.039Z,28.60
2022-07-29T15:35:58.770Z,28.70
2022-07-29T15:38:28.512Z,28.60
2022-07-29T15:40:56.469Z,28.50
2022-07-29T15:43:24.748Z,28.50
2022-07-29T15:46:12.407Z,28.40
2022-07-29T15:48:40.962Z,28.30
2022-07-29T15:51:08.587Z,28.40
2022-07-29T15:53:36.071Z,28.60
2022-07-29T15:56:03.718Z,28.80
2022-07-29T15:58:31.209Z,28.90
2022-07-29T16:00:59.085Z,28.90
2022-07-29T16:03:26.704Z,28.90
2022-07-29T16:05:54.108Z,28.80
2022-07-29T16:08:21.608Z,28.70
2022-07-29T16:10:49.169Z,28.50
2022-07-29T16:13:17.163Z,28.50
2022-07-29T16:16:01.984Z,28.40
2022-07-29T16:18:30.436Z,28.30
2022-07-29T16:20:58.378Z,28.30
2022-07-29T16:23:25.853Z,28.20
2022-07-29T16:26:01.406Z,28.20
2022-07-29T16:28:32.012Z,28.10
2022-07-29T16:31:00.388Z,28.10
2022-07-29T16:33:28.658Z,28.30
2022-07-29T16:36:18.562Z,28.40
2022-07-29T16:38:47.551Z,28.50
2022-07-29T16:41:15.289Z,28.50
2022-07-29T16:43:42.940Z,28.50
2022-07-29T16:46:14.005Z,28.40
2022-07-29T16:48:46.545Z,28.30
2022-07-29T16:51:14.417Z,28.10
2022-07-29T16:53:42.609Z,28.00
2022-07-29T16:56:12.962Z,27.90
2022-07-29T16:58:43.835Z,27.80
2022-07-29T17:01:12.642Z,27.80
2022-07-29T17:04:00.753Z,27.80
2022-07-29T17:06:29.393Z,27.60
2022-07-29T17:08:57.289Z,27.50
2022-07-29T17:11:52.630Z,27.50
2022-07-29T17:14:12.780Z,27.40
2022-07-29T17:16:40.261Z,27.40
2022-07-29T17:19:07.830Z,27.40
2022-07-29T17:21:35.291Z,27.40
2022-07-29T17:24:03.089Z,27.40
2022-07-29T17:26:31.729Z,27.30
2022-07-29T17:28:59.491Z,27.30
2022-07-29T17:31:27.062Z,27.30
2022-07-29T17:33:58.348Z,27.30
2022-07-29T17:36:27.470Z,27.30
2022-07-29T17:38:57.269Z,27.30
2022-07-29T17:41:25.853Z,27.30
2022-07-29T17:43:53.489Z,27.20
2022-07-29T17:46:22.939Z,27.20
2022-07-29T17:48:50.630Z,27.20
2022-07-29T17:51:18.659Z,27.00
2022-07-29T17:53:46.190Z,27.00
2022-07-29T17:56:14.333Z,27.00
2022-07-29T17:58:42.500Z,27.00
2022-07-29T18:01:10.502Z,27.00
2022-07-29T18:03:38.009Z,27.00
2022-07-29T18:06:06.211Z,26.90
2022-07-29T18:08:33.908Z,26.80
2022-07-29T18:11:01.500Z,26.70
2022-07-29T18:13:29.119Z,26.70
2022-07-29T18:16:00.302Z,26.70
2022-07-29T18:18:28.589Z,26.70
2022-07-29T18:20:56.250Z,26.60
2022-07-29T18:23:23.819Z,26.50
2022-07-29T18:25:51.172Z,26.50
2022-07-29T18:28:18.763Z,26.40
2022-07-29T18:30:46.399Z,26.40
2022-07-29T18:33:22.203Z,26.30
2022-07-29T18:35:52.569Z,26.30
2022-07-29T18:38:38.299Z,26.30
2022-07-29T18:41:05.579Z,26.20
2022-07-29T18:43:33.078Z,26.10
2022-07-29T18:46:00.389Z,25.90
2022-07-29T18:48:27.819Z,25.80
2022-07-29T18:50:55.159Z,25.70
2022-07-29T18:53:22.498Z,25.60
2022-07-29T18:55:49.830Z,25.50
2022-07-29T18:58:17.148Z,25.50
2022-07-29T19:00:44.450Z,25.40
2022-07-29T19:03:11.926Z,25.20
2022-07-29T19:05:39.359Z,25.20
2022-07-29T19:08:06.989Z,25.10
2022-07-29T19:10:34.498Z,25.00
2022-07-29T19:13:01.778Z,25.00
2022-07-29T19:15:29.358Z,25.00
2022-07-29T19:18:00.672Z,25.00
2022-07-29T19:20:28.539Z,24.90
2022-07-29T19:22:55.829Z,24.90
2022-07-29T19:25:23.501Z,24.90
2022-07-29T19:27:50.769Z,24.80
2022-07-29T19:30:18.710Z,24.70
2022-07-29T19:32:45.997Z,24.60
2022-07-29T19:35:25.564Z,24.60
2022-07-29T19:37:54.162Z,24.60
2022-07-29T19:40:22.218Z,24.50
2022-07-29T19:42:51.722Z,24.50
2022-07-29T19:45:21.001Z,24.50
2022-07-29T19:47:48.918Z,24.40
2022-07-29T19:50:16.879Z,24.40
2022-07-29T19:52:47.162Z,24.40
2022-07-29T19:55:15.268Z,24.30
2022-07-29T19:57:42.597Z,24.40
2022-07-29T20:00:12.118Z,24.30
2022-07-29T20:02:40.489Z,24.20
2022-07-29T20:05:11.638Z,24.10
2022-07-29T20:07:39.878Z,24.10
2022-07-29T20:10:09.006Z,24.10
2022-07-29T20:12:38.160Z,24.10
2022-07-29T20:15:07.459Z,24.00
2022-07-29T20:17:39.693Z,24.00
2022-07-29T20:20:08.977Z,23.90
2022-07-29T20:22:37.058Z,23.90
2022-07-29T20:25:06.098Z,23.90
2022-07-29T20:27:36.309Z,23.80
2022-07-29T20:30:04.188Z,23.80
2022-07-29T20:32:32.089Z,23.70
2022-07-29T20:34:59.479Z,23.70
2022-07-29T20:37:26.898Z,23.70
2022-07-29T20:39:54.299Z,23.70
2022-07-29T20:42:21.548Z,23.60
2022-07-29T20:44:51.239Z,23.60
2022-07-29T20:47:18.520Z,23.70
2022-07-29T20:49:46.040Z,23.70
2022-07-29T20:52:13.418Z,23.60
2022-07-29T20:54:40.839Z,23.60
2022-07-29T20:57:08.138Z,23.60
2022-07-29T20:59:35.489Z,23.70
2022-07-29T21:02:02.819Z,23.60
2022-07-29T21:04:30.823Z,23.60
2022-07-29T21:07:00.268Z,23.50
2022-07-29T21:09:28.551Z,23.40
2022-07-29T21:11:55.990Z,23.30
2022-07-29T21:14:41.210Z,23.30
2022-07-29T21:17:08.619Z,23.30
2022-07-29T21:19:35.919Z,23.30
2022-07-29T21:22:03.939Z,23.20
2022-07-29T21:24:31.388Z,23.20
2022-07-29T21:27:21.506Z,23.20
2022-07-29T21:29:49.669Z,23.20
2022-07-29T21:32:29.459Z,23.10
2022-07-29T21:34:58.459Z,23.10
2022-07-29T21:37:25.788Z,23.10
2022-07-29T21:39:53.119Z,23.10
2022-07-29T21:42:20.508Z,23.10
2022-07-29T21:44:47.849Z,23.00
2022-07-29T21:47:15.199Z,23.00
2022-07-29T21:49:42.758Z,23.00
2022-07-29T21:52:09.981Z,23.00
2022-07-29T21:54:38.718Z,22.90
2022-07-29T21:57:06.251Z,23.00
2022-07-29T21:59:33.759Z,23.00
2022-07-29T22:02:01.218Z,22.90
2022-07-29T22:04:29.945Z,22.90
2022-07-29T22:06:58.392Z,22.90
2022-07-29T22:09:26.073Z,22.80
2022-07-29T22:11:53.618Z,22.80
2022-07-29T22:14:21.208Z,22.70
2022-07-29T22:16:49.068Z,22.70
2022-07-29T22:19:16.689Z,22.60
2022-07-29T22:21:44.459Z,22.40
2022-07-29T22:24:11.910Z,22.20
2022-07-29T22:26:39.238Z,22.20
2022-07-29T22:29:07.270Z,22.20
2022-07-29T22:31:34.651Z,22.20
2022-07-29T22:34:02.108Z,22.20
2022-07-29T22:36:29.379Z,22.20
2022-07-29T22:38:56.740Z,22.20
2022-07-29T22:41:24.019Z,22.20
2022-07-29T22:43:51.392Z,22.20
2022-07-29T22:46:18.728Z,22.10
2022-07-29T22:48:46.312Z,22.10
2022-07-29T22:51:13.579Z,22.00
2022-07-29T22:53:40.999Z,22.00
2022-07-29T22:56:08.359Z,21.90
2022-07-29T22:58:35.779Z,21.90
2022-07-29T23:01:03.154Z,21.90
2022-07-29T23:03:30.580Z,21.90
2022-07-29T23:05:57.899Z,22.00
2022-07-29T23:08:25.168Z,21.90
2022-07-29T23:10:52.459Z,21.90
2022-07-29T23:13:19.770Z,21.90
2022-07-29T23:15:47.117Z,21.90
2022-07-29T23:18:14.708Z,21.90
2022-07-29T23:20:44.009Z,21.80
2022-07-29T23:23:11.508Z,21.80
2022-07-29T23:25:38.898Z,21.80
2022-07-29T23:28:06.305Z,21.80
2022-07-29T23:30:39.032Z,21.80
2022-07-29T23:33:06.419Z,21.80
2022-07-29T23:35:33.918Z,21.80
2022-07-29T23:38:01.201Z,21.80
2022-07-29T23:40:28.770Z,21.80
2022-07-29T23:42:56.139Z,21.80
2022-07-29T23:45:23.549Z,21.70
2022-07-29T23:48:09.758Z,21.70
2022-07-29T23:50:37.059Z,21.70
2022-07-29T23:53:04.418Z,21.70
2022-07-29T23:55:37.916Z,21.70
2022-07-29T23:58:06.328Z,21.70
